Time;durP1;ratioP1;P1;durP2;ratioP2;P2;SDS_P1;SDS_P2;PMS_P1;PMS_P2;Temp;Humidity;BMP_temperature;BMP_pressure;BME280_temperature;BME280_humidity;BME280_pressure;Samples;Min_cycle;Max_cycle;Signal;HPM_P1;HPM_P2
2023/12/26 00:00:59;;;;;;;;;;;15.20;75.90;;;;;;7327461;19;9462;-61
2023/12/26 00:03:28;;;;;;;;;;;15.10;75.90;;;;;;7326931;19;9520;-60
2023/12/26 00:06:00;;;;;;;;;;;15.20;75.90;;;;;;7327256;19;9508;-60
2023/12/26 00:08:29;;;;;;;;;;;15.20;76.00;;;;;;7326924;19;9629;-60
2023/12/26 00:10:58;;;;;;;;;;;15.10;75.70;;;;;;7327555;19;9166;-60
2023/12/26 00:13:27;;;;;;;;;;;15.10;75.80;;;;;;7327540;19;9224;-60
2023/12/26 00:15:56;;;;;;;;;;;15.10;75.80;;;;;;7327820;19;9120;-60
2023/12/26 00:18:45;;;;;;;;;;;15.20;76.00;;;;;;7324483;19;10406;-60
2023/12/26 00:21:16;;;;;;;;;;;15.20;76.00;;;;;;7327297;19;9245;-60
2023/12/26 00:23:46;;;;;;;;;;;15.20;75.90;;;;;;7324736;19;9192;-60
2023/12/26 00:26:15;;;;;;;;;;;15.10;75.90;;;;;;7327375;19;10263;-60
2023/12/26 00:28:44;;;;;;;;;;;15.10;75.90;;;;;;7326345;19;9291;-60
2023/12/26 00:31:13;;;;;;;;;;;15.20;75.80;;;;;;7326629;19;10198;-61
2023/12/26 00:33:42;;;;;;;;;;;15.10;75.90;;;;;;7326309;19;9482;-60
2023/12/26 00:36:18;;;;;;;;;;;15.10;76.10;;;;;;7326121;19;9649;-60
2023/12/26 00:38:48;;;;;;;;;;;15.10;76.00;;;;;;7326836;19;9305;-60
2023/12/26 00:41:37;;;;;;;;;;;15.10;75.90;;;;;;7324530;19;9626;-60
2023/12/26 00:44:06;;;;;;;;;;;15.10;76.00;;;;;;7326215;19;9385;-61
2023/12/26 00:46:35;;;;;;;;;;;15.10;76.00;;;;;;7325849;19;9265;-60
2023/12/26 00:49:04;;;;;;;;;;;15.10;76.00;;;;;;7326926;19;9281;-60
2023/12/26 00:51:36;;;;;;;;;;;15.10;76.00;;;;;;7326770;19;9553;-60
2023/12/26 00:54:06;;;;;;;;;;;15.10;76.10;;;;;;7325361;19;9534;-60
2023/12/26 00:56:35;;;;;;;;;;;15.10;76.10;;;;;;7325951;19;9434;-60
2023/12/26 00:59:04;;;;;;;;;;;15.10;76.00;;;;;;7325180;19;10595;-60
2023/12/26 01:01:33;;;;;;;;;;;15.10;76.00;;;;;;7326415;19;9242;-60
2023/12/26 01:04:02;;;;;;;;;;;15.10;76.00;;;;;;7325101;19;9516;-60
2023/12/26 01:06:31;;;;;;;;;;;15.10;76.00;;;;;;7325568;19;10530;-60
2023/12/26 01:09:03;;;;;;;;;;;15.10;76.00;;;;;;7324679;19;9674;-60
2023/12/26 01:11:52;;;;;;;;;;;15.10;76.10;;;;;;7323254;19;10208;-60
2023/12/26 01:14:21;;;;;;;;;;;15.10;76.00;;;;;;7325602;19;9509;-60
2023/12/26 01:16:50;;;;;;;;;;;15.10;75.90;;;;;;7324469;19;9573;-60
2023/12/26 01:19:19;;;;;;;;;;;15.10;76.00;;;;;;7325427;19;9253;-60
2023/12/26 01:21:48;;;;;;;;;;;15.10;76.10;;;;;;7325295;19;9457;-60
2023/12/26 01:24:23;;;;;;;;;;;15.10;76.10;;;;;;7325254;19;9463;-60
2023/12/26 01:26:52;;;;;;;;;;;15.10;76.10;;;;;;7325690;19;9350;-60
2023/12/26 01:29:21;;;;;;;;;;;15.10;76.10;;;;;;7325426;19;9256;-60
2023/12/26 01:31:50;;;;;;;;;;;15.10;76.00;;;;;;7324163;19;9347;-60
2023/12/26 01:34:19;;;;;;;;;;;15.10;76.20;;;;;;7323559;19;10345;-60
2023/12/26 01:36:48;;;;;;;;;;;15.10;76.10;;;;;;7324039;19;9280;-60
2023/12/26 01:39:20;;;;;;;;;;;15.10;76.20;;;;;;7324901;19;9217;-60
2023/12/26 01:41:49;;;;;;;;;;;15.10;76.20;;;;;;7325231;19;9277;-60
2023/12/26 01:44:18;;;;;;;;;;;15.10;76.10;;;;;;7323810;19;9119;-60
2023/12/26 01:46:50;;;;;;;;;;;15.10;76.20;;;;;;7325790;19;9169;-60
2023/12/26 01:49:20;;;;;;;;;;;15.10;76.30;;;;;;7324089;19;9671;-61
2023/12/26 01:51:51;;;;;;;;;;;15.10;76.20;;;;;;7324826;19;9147;-60
2023/12/26 01:54:31;;;;;;;;;;;15.10;76.00;;;;;;7323876;19;9434;-60
2023/12/26 01:57:02;;;;;;;;;;;15.10;76.20;;;;;;7324835;19;9633;-60
2023/12/26 01:59:32;;;;;;;;;;;15.10;76.20;;;;;;7323529;19;9396;-60
2023/12/26 02:02:02;;;;;;;;;;;15.10;76.30;;;;;;7324313;19;10671;-60
2023/12/26 02:04:32;;;;;;;;;;;15.10;76.20;;;;;;7323788;19;9437;-60
2023/12/26 02:07:02;;;;;;;;;;;15.10;76.40;;;;;;7324389;19;9458;-60
2023/12/26 02:09:33;;;;;;;;;;;15.10;76.40;;;;;;7324505;19;9544;-61
2023/12/26 02:12:03;;;;;;;;;;;15.10;76.30;;;;;;7324265;19;9505;-60
2023/12/26 02:14:32;;;;;;;;;;;15.10;76.30;;;;;;7324165;19;9493;-60
2023/12/26 02:17:24;;;;;;;;;;;15.10;76.40;;;;;;7321230;19;9541;-60
2023/12/26 02:19:54;;;;;;;;;;;15.10;76.60;;;;;;7324280;19;9544;-60
2023/12/26 02:22:24;;;;;;;;;;;15.10;76.40;;;;;;7324304;19;9528;-60
2023/12/26 02:24:56;;;;;;;;;;;15.10;76.40;;;;;;7323686;19;9488;-60
2023/12/26 02:27:30;;;;;;;;;;;15.10;76.50;;;;;;7323856;19;10613;-60
2023/12/26 02:30:02;;;;;;;;;;;15.10;76.50;;;;;;7322578;19;9165;-60
2023/12/26 02:32:35;;;;;;;;;;;15.10;76.70;;;;;;7324154;19;9481;-61
2023/12/26 02:35:06;;;;;;;;;;;15.10;76.50;;;;;;7323086;19;9453;-60
2023/12/26 02:37:36;;;;;;;;;;;15.10;76.70;;;;;;7324037;19;10398;-60
2023/12/26 02:40:09;;;;;;;;;;;15.10;76.70;;;;;;7322688;19;9258;-60
2023/12/26 02:42:38;;;;;;;;;;;15.10;76.70;;;;;;7322933;19;9479;-60
2023/12/26 02:45:09;;;;;;;;;;;15.10;76.70;;;;;;7323312;19;9793;-61
2023/12/26 02:47:58;;;;;;;;;;;15.00;76.80;;;;;;7327732;19;9524;-61
2023/12/26 02:50:27;;;;;;;;;;;15.10;76.70;;;;;;7329567;19;9271;-60
2023/12/26 02:52:56;;;;;;;;;;;15.10;76.70;;;;;;7329675;19;9538;-60
2023/12/26 02:55:28;;;;;;;;;;;15.10;76.80;;;;;;7329078;19;9648;-60
2023/12/26 02:57:57;;;;;;;;;;;15.00;76.60;;;;;;7328977;19;10162;-60
2023/12/26 03:00:26;;;;;;;;;;;15.00;76.70;;;;;;7328558;19;9252;-61
2023/12/26 03:02:55;;;;;;;;;;;15.00;76.60;;;;;;7329815;19;9238;-60
2023/12/26 03:05:25;;;;;;;;;;;15.00;76.70;;;;;;7327615;19;9420;-60
2023/12/26 03:07:54;;;;;;;;;;;15.10;76.80;;;;;;7329453;19;9629;-60
2023/12/26 03:10:23;;;;;;;;;;;15.10;76.80;;;;;;7328616;19;9404;-60
2023/12/26 03:12:55;;;;;;;;;;;15.10;76.70;;;;;;7328726;19;10411;-60
2023/12/26 03:15:24;;;;;;;;;;;15.00;76.80;;;;;;7327716;19;9165;-60
2023/12/26 03:17:53;;;;;;;;;;;15.10;76.80;;;;;;7329022;19;10273;-60
2023/12/26 03:20:23;;;;;;;;;;;15.10;76.80;;;;;;7328352;19;9458;-60
2023/12/26 03:22:52;;;;;;;;;;;15.00;76.80;;;;;;7328151;19;9253;-60
2023/12/26 03:25:41;;;;;;;;;;;15.00;76.80;;;;;;7327482;19;9257;-60
2023/12/26 03:28:13;;;;;;;;;;;15.00;76.60;;;;;;7327580;19;10271;-60
2023/12/26 03:30:42;;;;;;;;;;;15.00;76.70;;;;;;7328442;19;9507;-60
2023/12/26 03:33:31;;;;;;;;;;;15.00;76.80;;;;;;7323189;19;9279;-60
2023/12/26 03:36:00;;;;;;;;;;;15.00;76.70;;;;;;7327549;19;9183;-60
2023/12/26 03:38:29;;;;;;;;;;;15.00;76.80;;;;;;7328630;19;9485;-60
2023/12/26 03:41:00;;;;;;;;;;;15.00;76.70;;;;;;7327435;19;9499;-60
2023/12/26 03:43:31;;;;;;;;;;;15.00;76.90;;;;;;7327923;19;9528;-60
2023/12/26 03:46:01;;;;;;;;;;;15.00;76.60;;;;;;7328621;19;9477;-60
2023/12/26 03:48:30;;;;;;;;;;;15.00;76.70;;;;;;7327391;19;9600;-60
2023/12/26 03:50:59;;;;;;;;;;;15.00;76.60;;;;;;7327568;19;9438;-60
2023/12/26 03:53:28;;;;;;;;;;;15.00;76.80;;;;;;7327208;19;9467;-60
2023/12/26 03:55:57;;;;;;;;;;;15.00;76.60;;;;;;7327271;19;10378;-60
2023/12/26 03:58:49;;;;;;;;;;;15.00;76.80;;;;;;7324179;19;9483;-60
2023/12/26 04:01:18;;;;;;;;;;;15.00;76.70;;;;;;7328091;19;9535;-60
2023/12/26 04:03:47;;;;;;;;;;;15.00;76.80;;;;;;7326659;19;9241;-60
2023/12/26 04:06:16;;;;;;;;;;;15.00;76.80;;;;;;7327322;19;9425;-60
2023/12/26 04:08:45;;;;;;;;;;;15.00;76.80;;;;;;7327540;19;9383;-60
2023/12/26 04:11:15;;;;;;;;;;;15.00;76.70;;;;;;7326664;19;9477;-60
2023/12/26 04:13:44;;;;;;;;;;;15.00;76.50;;;;;;7327474;19;9475;-60
2023/12/26 04:16:16;;;;;;;;;;;15.00;76.80;;;;;;7326875;19;9275;-60
2023/12/26 04:18:45;;;;;;;;;;;15.00;76.70;;;;;;7327608;19;9423;-60
2023/12/26 04:21:14;;;;;;;;;;;15.00;76.60;;;;;;7327035;19;9315;-60
2023/12/26 04:23:43;;;;;;;;;;;15.00;76.90;;;;;;7327161;19;9291;-60
2023/12/26 04:26:12;;;;;;;;;;;15.00;76.80;;;;;;7327016;19;9296;-60
2023/12/26 04:28:41;;;;;;;;;;;15.00;76.60;;;;;;7326256;19;9304;-60
2023/12/26 04:31:10;;;;;;;;;;;15.00;76.40;;;;;;7327882;19;9520;-60
2023/12/26 04:33:42;;;;;;;;;;;15.00;76.70;;;;;;7326020;19;9120;-60
2023/12/26 04:36:11;;;;;;;;;;;15.00;76.80;;;;;;7327004;19;9470;-60
2023/12/26 04:38:41;;;;;;;;;;;15.00;76.80;;;;;;7325839;19;9527;-60
2023/12/26 04:41:13;;;;;;;;;;;15.00;76.70;;;;;;7326603;19;9773;-60
2023/12/26 04:43:42;;;;;;;;;;;15.00;76.60;;;;;;7325488;19;9166;-60
2023/12/26 04:46:20;;;;;;;;;;;15.00;77.30;;;;;;7326380;19;9122;-60
2023/12/26 04:48:53;;;;;;;;;;;15.00;76.60;;;;;;7325954;19;9434;-60
2023/12/26 04:51:23;;;;;;;;;;;15.00;76.70;;;;;;7326235;19;9268;-60
2023/12/26 04:53:52;;;;;;;;;;;15.00;76.60;;;;;;7326078;19;10382;-60
2023/12/26 04:56:23;;;;;;;;;;;15.00;76.60;;;;;;7325303;19;9501;-60
2023/12/26 04:58:53;;;;;;;;;;;15.00;76.60;;;;;;7326564;19;9293;-62
2023/12/26 05:01:23;;;;;;;;;;;15.00;76.50;;;;;;7325481;19;9489;-60
2023/12/26 05:03:55;;;;;;;;;;;14.90;76.50;;;;;;7325545;19;9465;-60
2023/12/26 05:06:24;;;;;;;;;;;15.00;76.50;;;;;;7325364;19;9261;-60
2023/12/26 05:08:53;;;;;;;;;;;14.90;76.40;;;;;;7325284;19;9500;-60
2023/12/26 05:11:26;;;;;;;;;;;14.90;76.30;;;;;;7323137;19;9141;-60
2023/12/26 05:13:55;;;;;;;;;;;14.90;76.30;;;;;;7326232;19;10695;-61
2023/12/26 05:16:24;;;;;;;;;;;15.00;76.30;;;;;;7325459;19;9186;-60
2023/12/26 05:18:55;;;;;;;;;;;14.90;76.20;;;;;;7326594;19;9477;-60
2023/12/26 05:21:26;;;;;;;;;;;14.90;76.20;;;;;;7325723;19;9192;-60
2023/12/26 05:23:55;;;;;;;;;;;15.00;76.30;;;;;;7324812;19;9265;-60
2023/12/26 05:26:24;;;;;;;;;;;15.00;76.10;;;;;;7326054;19;9293;-60
2023/12/26 05:28:53;;;;;;;;;;;15.00;76.10;;;;;;7324377;19;9242;-60
2023/12/26 05:31:22;;;;;;;;;;;15.00;76.10;;;;;;7325446;19;9379;-60
2023/12/26 05:33:51;;;;;;;;;;;14.90;75.90;;;;;;7324594;19;9491;-60
2023/12/26 05:36:23;;;;;;;;;;;14.90;75.90;;;;;;7325052;19;9229;-60
2023/12/26 05:38:52;;;;;;;;;;;14.90;75.70;;;;;;7325194;19;9470;-60
2023/12/26 05:41:21;;;;;;;;;;;14.90;75.90;;;;;;7324831;19;9602;-60
2023/12/26 05:43:50;;;;;;;;;;;14.90;75.70;;;;;;7324367;19;9192;-60
2023/12/26 05:46:20;;;;;;;;;;;14.90;75.80;;;;;;7324753;19;9189;-60
2023/12/26 05:49:09;;;;;;;;;;;14.90;75.60;;;;;;7323672;19;10504;-60
2023/12/26 05:51:41;;;;;;;;;;;14.90;75.90;;;;;;7324219;19;9405;-60
2023/12/26 05:54:10;;;;;;;;;;;14.90;75.80;;;;;;7325229;19;9275;-60
2023/12/26 05:56:40;;;;;;;;;;;14.90;75.60;;;;;;7324175;19;9613;-60
2023/12/26 05:59:09;;;;;;;;;;;14.90;75.70;;;;;;7324845;19;9537;-60
2023/12/26 06:01:38;;;;;;;;;;;14.90;75.70;;;;;;7324249;19;9376;-60
2023/12/26 06:04:07;;;;;;;;;;;14.90;75.70;;;;;;7324964;19;10162;-60
2023/12/26 06:06:37;;;;;;;;;;;14.90;75.70;;;;;;7323901;19;9365;-60
2023/12/26 06:09:08;;;;;;;;;;;14.90;75.60;;;;;;7324686;19;9539;-60
2023/12/26 06:11:37;;;;;;;;;;;14.90;75.50;;;;;;7323587;19;9286;-61
2023/12/26 06:14:07;;;;;;;;;;;14.90;75.50;;;;;;7324230;19;9237;-60
2023/12/26 06:16:36;;;;;;;;;;;14.90;75.40;;;;;;7324381;19;9488;-60
2023/12/26 06:19:05;;;;;;;;;;;14.90;75.50;;;;;;7323089;19;9290;-60
2023/12/26 06:21:34;;;;;;;;;;;14.90;75.40;;;;;;7322864;19;9330;-60
2023/12/26 06:24:03;;;;;;;;;;;14.90;75.50;;;;;;7322793;19;9479;-60
2023/12/26 06:26:35;;;;;;;;;;;14.90;75.40;;;;;;7324032;19;10784;-60
2023/12/26 06:29:04;;;;;;;;;;;14.90;75.50;;;;;;7323339;19;9664;-60
2023/12/26 06:31:33;;;;;;;;;;;14.90;75.60;;;;;;7323889;19;9635;-60
2023/12/26 06:34:02;;;;;;;;;;;14.90;75.50;;;;;;7322781;19;9611;-60
2023/12/26 06:36:32;;;;;;;;;;;14.90;75.50;;;;;;7323145;19;9562;-61
2023/12/26 06:39:03;;;;;;;;;;;14.90;75.40;;;;;;7322907;19;9464;-60
2023/12/26 06:41:35;;;;;;;;;;;14.90;75.60;;;;;;7323397;19;9482;-60
2023/12/26 06:44:06;;;;;;;;;;;14.90;75.50;;;;;;7322929;19;9478;-61
2023/12/26 06:46:36;;;;;;;;;;;14.90;75.60;;;;;;7322361;19;9419;-60
2023/12/26 06:49:05;;;;;;;;;;;14.90;75.50;;;;;;7322614;19;10601;-60
2023/12/26 06:51:34;;;;;;;;;;;14.90;75.40;;;;;;7322193;19;9445;-60
2023/12/26 06:54:03;;;;;;;;;;;14.90;75.50;;;;;;7322994;19;9209;-60
2023/12/26 06:56:35;;;;;;;;;;;14.90;75.40;;;;;;7321652;19;9616;-60
2023/12/26 06:59:04;;;;;;;;;;;14.80;75.40;;;;;;7322817;19;9250;-60
2023/12/26 07:01:34;;;;;;;;;;;14.90;75.60;;;;;;7322119;19;9229;-60
2023/12/26 07:04:03;;;;;;;;;;;14.80;75.40;;;;;;7322196;19;9217;-60
2023/12/26 07:06:32;;;;;;;;;;;14.90;75.50;;;;;;7321762;19;9324;-60
2023/12/26 07:09:02;;;;;;;;;;;14.80;75.50;;;;;;7322634;19;9863;-60
2023/12/26 07:11:33;;;;;;;;;;;14.80;75.40;;;;;;7322033;19;9577;-61
2023/12/26 07:14:02;;;;;;;;;;;14.90;75.40;;;;;;7323294;19;9689;-60
2023/12/26 07:16:35;;;;;;;;;;;14.90;75.40;;;;;;7322467;19;9501;-60
2023/12/26 07:19:04;;;;;;;;;;;14.80;75.40;;;;;;7321270;19;9591;-60
2023/12/26 07:21:33;;;;;;;;;;;14.80;75.40;;;;;;7322781;19;9269;-60
2023/12/26 07:24:04;;;;;;;;;;;14.80;75.20;;;;;;7321321;19;10013;-60
2023/12/26 07:26:36;;;;;;;;;;;14.80;75.30;;;;;;7321861;19;9124;-60
2023/12/26 07:29:05;;;;;;;;;;;14.80;75.30;;;;;;7321279;19;9299;-60
2023/12/26 07:31:34;;;;;;;;;;;14.80;75.20;;;;;;7321494;19;9128;-60
2023/12/26 07:34:08;;;;;;;;;;;14.80;75.20;;;;;;7324060;19;9250;-60
2023/12/26 07:36:37;;;;;;;;;;;14.80;75.20;;;;;;7327764;19;10494;-60
2023/12/26 07:39:07;;;;;;;;;;;14.80;75.20;;;;;;7327620;19;10583;-60
2023/12/26 07:41:38;;;;;;;;;;;14.80;75.30;;;;;;7327551;19;9645;-60
2023/12/26 07:44:08;;;;;;;;;;;14.80;75.20;;;;;;7327430;19;9647;-60
2023/12/26 07:46:37;;;;;;;;;;;14.90;75.20;;;;;;7326556;19;9545;-60
2023/12/26 07:49:06;;;;;;;;;;;14.90;75.20;;;;;;7326757;19;9435;-60
2023/12/26 07:51:35;;;;;;;;;;;15.00;74.90;;;;;;7326545;19;9672;-61
2023/12/26 07:54:24;;;;;;;;;;;15.10;74.60;;;;;;7325989;19;9495;-60
2023/12/26 07:56:56;;;;;;;;;;;15.10;74.50;;;;;;7325421;19;9307;-60
2023/12/26 07:59:26;;;;;;;;;;;15.20;74.20;;;;;;7327355;19;9308;-60
2023/12/26 08:01:55;;;;;;;;;;;15.30;74.00;;;;;;7326600;19;9652;-62
2023/12/26 08:04:24;;;;;;;;;;;15.30;73.80;;;;;;7326420;19;9669;-60
2023/12/26 08:06:53;;;;;;;;;;;15.40;73.80;;;;;;7327346;19;9470;-60
2023/12/26 08:09:22;;;;;;;;;;;15.40;73.70;;;;;;7326226;19;9536;-62
2023/12/26 08:11:51;;;;;;;;;;;15.50;73.50;;;;;;7326917;19;9209;-60
2023/12/26 08:14:23;;;;;;;;;;;15.50;73.40;;;;;;7326502;19;9237;-60
2023/12/26 08:16:52;;;;;;;;;;;15.70;73.40;;;;;;7326424;19;9477;-60
2023/12/26 08:19:41;;;;;;;;;;;15.70;73.20;;;;;;7324695;19;10944;-60
2023/12/26 08:22:10;;;;;;;;;;;15.70;73.00;;;;;;7326236;19;9230;-60
2023/12/26 08:24:39;;;;;;;;;;;15.70;73.10;;;;;;7326138;19;9300;-60
2023/12/26 08:27:08;;;;;;;;;;;15.70;72.90;;;;;;7325969;19;9497;-60
2023/12/26 08:29:40;;;;;;;;;;;15.80;72.80;;;;;;7327105;19;9190;-60
2023/12/26 08:32:09;;;;;;;;;;;15.80;72.90;;;;;;7324873;19;10397;-60
2023/12/26 08:34:38;;;;;;;;;;;15.80;72.80;;;;;;7326094;19;9473;-60
2023/12/26 08:37:07;;;;;;;;;;;15.80;73.00;;;;;;7325483;19;9630;-60
2023/12/26 08:39:36;;;;;;;;;;;15.70;72.90;;;;;;7326156;19;9197;-60
2023/12/26 08:42:06;;;;;;;;;;;15.70;72.90;;;;;;7325294;19;9604;-60
2023/12/26 08:44:35;;;;;;;;;;;15.70;72.80;;;;;;7325386;19;9237;-60
2023/12/26 08:47:08;;;;;;;;;;;15.70;73.00;;;;;;7325706;19;9217;-60
2023/12/26 08:49:34;;;;;;;;;;;15.70;73.10;;;;;;7325711;19;9230;-60
2023/12/26 08:52:03;;;;;;;;;;;15.70;73.10;;;;;;7325444;19;9256;-60
2023/12/26 08:54:32;;;;;;;;;;;15.70;73.20;;;;;;7325974;19;9465;-60
2023/12/26 08:57:01;;;;;;;;;;;15.70;73.30;;;;;;7325465;19;9455;-60
2023/12/26 08:59:31;;;;;;;;;;;15.60;73.20;;;;;;7324695;19;9510;-60
2023/12/26 09:02:00;;;;;;;;;;;15.60;73.40;;;;;;7325978;19;9644;-60
2023/12/26 09:04:32;;;;;;;;;;;15.60;73.40;;;;;;7324855;19;9596;-60
2023/12/26 09:07:02;;;;;;;;;;;15.50;73.40;;;;;;7325573;19;9453;-60
2023/12/26 09:09:31;;;;;;;;;;;15.50;73.40;;;;;;7324575;19;9464;-60
2023/12/26 09:12:00;;;;;;;;;;;15.50;73.50;;;;;;7325805;19;11091;-60
2023/12/26 09:14:29;;;;;;;;;;;15.50;73.40;;;;;;7323929;19;9203;-60
2023/12/26 09:16:58;;;;;;;;;;;15.50;73.50;;;;;;7325202;19;9203;-60
2023/12/26 09:19:28;;;;;;;;;;;15.40;73.60;;;;;;7324286;19;9805;-60
2023/12/26 09:22:00;;;;;;;;;;;15.40;73.50;;;;;;7325534;19;8944;-60
2023/12/26 09:24:29;;;;;;;;;;;15.40;73.40;;;;;;7324462;19;9739;-60
2023/12/26 09:26:58;;;;;;;;;;;15.40;73.60;;;;;;7324616;19;9535;-60
2023/12/26 09:29:27;;;;;;;;;;;15.40;73.60;;;;;;7324243;19;9477;-60
2023/12/26 09:31:56;;;;;;;;;;;15.40;73.70;;;;;;7324486;19;9420;-60
2023/12/26 09:34:26;;;;;;;;;;;15.30;73.70;;;;;;7324690;19;9725;-60
2023/12/26 09:36:55;;;;;;;;;;;15.30;74.30;;;;;;7323919;19;9283;-60
2023/12/26 09:39:26;;;;;;;;;;;15.30;73.80;;;;;;7324299;19;11339;-60
2023/12/26 09:41:58;;;;;;;;;;;15.30;73.80;;;;;;7323647;19;9363;-60
2023/12/26 09:44:28;;;;;;;;;;;15.30;73.80;;;;;;7324074;19;9750;-60
2023/12/26 09:46:58;;;;;;;;;;;15.20;73.80;;;;;;7323601;19;9522;-60
2023/12/26 09:49:27;;;;;;;;;;;15.20;73.80;;;;;;7324273;19;9183;-60
2023/12/26 09:52:16;;;;;;;;;;;15.20;73.70;;;;;;7323201;19;9290;-60
2023/12/26 09:54:52;;;;;;;;;;;15.20;73.90;;;;;;7323828;19;9608;-60
2023/12/26 09:57:22;;;;;;;;;;;15.20;73.90;;;;;;7322189;19;9422;-60
2023/12/26 09:59:54;;;;;;;;;;;15.20;73.70;;;;;;7323207;19;9531;-60
2023/12/26 10:02:23;;;;;;;;;;;15.20;73.70;;;;;;7323706;19;10533;-60
2023/12/26 10:04:52;;;;;;;;;;;15.20;73.70;;;;;;7323076;19;9415;-60
2023/12/26 10:07:22;;;;;;;;;;;15.20;73.80;;;;;;7323713;19;9583;-60
2023/12/26 10:09:54;;;;;;;;;;;15.20;73.80;;;;;;7323259;19;9243;-60
2023/12/26 10:12:28;;;;;;;;;;;15.20;74.20;;;;;;7322697;19;9633;-60
2023/12/26 10:15:01;;;;;;;;;;;15.20;73.70;;;;;;7323689;19;9572;-60
2023/12/26 10:17:31;;;;;;;;;;;15.20;73.80;;;;;;7322987;19;9628;-60
2023/12/26 10:20:03;;;;;;;;;;;15.20;73.80;;;;;;7324187;19;9217;-60
2023/12/26 10:22:33;;;;;;;;;;;15.10;73.80;;;;;;7323069;19;9405;-60
2023/12/26 10:25:06;;;;;;;;;;;15.10;73.70;;;;;;7323182;19;9031;-59
2023/12/26 10:27:35;;;;;;;;;;;15.10;73.70;;;;;;7322749;19;9238;-60
2023/12/26 10:30:04;;;;;;;;;;;15.10;73.80;;;;;;7323702;19;10607;-60
2023/12/26 10:32:33;;;;;;;;;;;15.10;73.80;;;;;;7323324;19;10756;-60
2023/12/26 10:35:16;;;;;;;;;;;15.10;73.90;;;;;;7322361;19;10386;-60
2023/12/26 10:37:45;;;;;;;;;;;15.10;73.70;;;;;;7323306;19;9414;-60
2023/12/26 10:40:18;;;;;;;;;;;15.10;73.80;;;;;;7322552;19;9337;-60
2023/12/26 10:42:52;;;;;;;;;;;15.10;73.80;;;;;;7323150;19;9203;-60
2023/12/26 10:45:22;;;;;;;;;;;15.10;73.80;;;;;;7321544;19;9636;-60
2023/12/26 10:47:52;;;;;;;;;;;15.10;73.80;;;;;;7323222;19;9293;-60
2023/12/26 10:50:23;;;;;;;;;;;15.10;73.90;;;;;;7322182;19;9602;-60
2023/12/26 10:53:08;;;;;;;;;;;15.00;73.80;;;;;;7321839;19;9221;-60
2023/12/26 10:55:44;;;;;;;;;;;15.10;73.70;;;;;;7321692;19;9259;-60
2023/12/26 10:58:29;;;;;;;;;;;15.10;73.80;;;;;;7321472;19;10389;-60
2023/12/26 13:53:17;;;;;;;;;;;15.00;73.70;;;;;;7323282;19;9230;-61
2023/12/26 13:55:46;;;;;;;;;;;15.00;73.20;;;;;;7324072;19;9489;-61
2023/12/26 13:58:15;;;;;;;;;;;15.10;73.00;;;;;;7323468;19;9241;-61
2023/12/26 14:00:44;;;;;;;;;;;15.20;73.00;;;;;;7324137;19;9302;-61
2023/12/26 14:03:14;;;;;;;;;;;15.30;72.90;;;;;;7323582;19;9238;-61
2023/12/26 14:05:43;;;;;;;;;;;15.30;72.70;;;;;;7323552;19;9213;-61
2023/12/26 14:08:14;;;;;;;;;;;15.40;72.60;;;;;;7322878;19;9183;-60
2023/12/26 14:10:46;;;;;;;;;;;15.40;72.50;;;;;;7323906;19;9626;-61
2023/12/26 14:13:13;;;;;;;;;;;15.50;72.50;;;;;;7323335;19;9266;-61
2023/12/26 14:15:42;;;;;;;;;;;15.60;72.30;;;;;;7323109;19;9457;-61
2023/12/26 14:18:12;;;;;;;;;;;15.60;72.80;;;;;;7323455;19;9291;-61
2023/12/26 14:20:41;;;;;;;;;;;15.70;72.10;;;;;;7322787;19;9529;-60
2023/12/26 14:23:10;;;;;;;;;;;15.60;72.10;;;;;;7323037;19;9571;-60
2023/12/26 14:25:39;;;;;;;;;;;15.70;72.00;;;;;;7322403;19;9471;-61
2023/12/26 14:28:13;;;;;;;;;;;15.70;71.90;;;;;;7323476;19;9148;-61
2023/12/26 14:30:45;;;;;;;;;;;15.70;72.00;;;;;;7322354;19;10117;-61
2023/12/26 14:33:34;;;;;;;;;;;15.70;72.00;;;;;;7320859;19;9565;-61
2023/12/26 14:36:03;;;;;;;;;;;15.70;72.00;;;;;;7323304;19;9246;-60
2023/12/26 14:38:32;;;;;;;;;;;15.70;72.00;;;;;;7321753;19;9601;-60
2023/12/26 14:41:02;;;;;;;;;;;15.70;72.00;;;;;;7322514;19;9162;-61
2023/12/26 14:43:34;;;;;;;;;;;15.70;72.00;;;;;;7326554;19;9528;-60
2023/12/26 14:46:03;;;;;;;;;;;15.60;72.00;;;;;;7329033;19;9463;-60
2023/12/26 14:48:32;;;;;;;;;;;15.60;72.10;;;;;;7328557;19;9517;-61
2023/12/26 14:51:04;;;;;;;;;;;15.60;72.20;;;;;;7329392;19;9251;-62
2023/12/26 14:53:41;;;;;;;;;;;15.60;72.20;;;;;;7328301;19;9275;-60
2023/12/26 14:56:10;;;;;;;;;;;15.50;72.30;;;;;;7328700;19;9377;-60
2023/12/26 14:58:42;;;;;;;;;;;15.50;72.30;;;;;;7328973;19;9523;-60
2023/12/26 15:01:11;;;;;;;;;;;15.50;72.30;;;;;;7328743;19;9425;-60
2023/12/26 15:03:48;;;;;;;;;;;15.50;72.40;;;;;;7328856;19;9372;-60
2023/12/26 15:06:18;;;;;;;;;;;15.50;72.50;;;;;;7328312;19;9337;-61
2023/12/26 15:09:07;;;;;;;;;;;15.40;72.40;;;;;;7327272;19;9428;-60
2023/12/26 15:11:38;;;;;;;;;;;15.40;72.40;;;;;;7328635;19;9146;-60
2023/12/26 15:14:13;;;;;;;;;;;15.40;72.50;;;;;;7327911;19;9570;-60
2023/12/26 15:16:42;;;;;;;;;;;15.40;72.50;;;;;;7327947;19;9421;-61
2023/12/26 15:19:11;;;;;;;;;;;15.30;72.50;;;;;;7328057;19;9433;-61
2023/12/26 15:21:44;;;;;;;;;;;15.30;72.60;;;;;;7328105;19;9593;-60
2023/12/26 15:24:13;;;;;;;;;;;15.30;72.70;;;;;;7327129;19;9342;-61
2023/12/26 15:26:43;;;;;;;;;;;15.30;72.70;;;;;;7327807;19;10427;-60
2023/12/26 15:29:15;;;;;;;;;;;15.20;72.70;;;;;;7327553;19;9361;-60
2023/12/26 15:31:44;;;;;;;;;;;15.20;72.70;;;;;;7327642;19;9289;-61
2023/12/26 15:34:14;;;;;;;;;;;15.20;72.70;;;;;;7327691;19;9246;-60
2023/12/26 15:36:44;;;;;;;;;;;15.20;72.80;;;;;;7327603;19;9347;-61
2023/12/26 15:39:33;;;;;;;;;;;15.20;72.80;;;;;;7326290;19;9254;-61
2023/12/26 15:42:02;;;;;;;;;;;15.10;72.80;;;;;;7326509;19;9127;-61
2023/12/26 15:44:34;;;;;;;;;;;15.10;72.80;;;;;;7328055;19;9340;-60
2023/12/26 15:47:04;;;;;;;;;;;15.10;72.80;;;;;;7326660;19;9534;-61
2023/12/26 15:49:33;;;;;;;;;;;15.10;72.80;;;;;;7327593;19;9293;-60
2023/12/26 15:52:02;;;;;;;;;;;15.10;72.90;;;;;;7326276;19;9409;-60
2023/12/26 15:54:31;;;;;;;;;;;15.00;72.90;;;;;;7325333;19;9320;-60
2023/12/26 15:57:00;;;;;;;;;;;15.00;72.90;;;;;;7327053;19;9307;-60
2023/12/26 15:59:29;;;;;;;;;;;15.00;72.90;;;;;;7326993;19;9105;-60
2023/12/26 16:02:00;;;;;;;;;;;15.00;73.00;;;;;;7327499;19;9773;-60
2023/12/26 16:04:30;;;;;;;;;;;15.00;73.00;;;;;;7326964;19;10694;-61
2023/12/26 16:06:59;;;;;;;;;;;15.00;73.00;;;;;;7327980;19;9480;-60
2023/12/26 16:09:28;;;;;;;;;;;14.90;73.10;;;;;;7326523;19;9410;-60
2023/12/26 16:11:57;;;;;;;;;;;14.90;73.10;;;;;;7327672;19;9611;-61
2023/12/26 16:14:26;;;;;;;;;;;14.90;73.10;;;;;;7326068;19;9566;-61
2023/12/26 16:16:55;;;;;;;;;;;14.90;73.10;;;;;;7327899;19;9382;-61
2023/12/26 16:19:27;;;;;;;;;;;14.90;73.10;;;;;;7326241;19;9452;-60
2023/12/26 16:21:56;;;;;;;;;;;14.90;73.10;;;;;;7327661;19;9344;-60
2023/12/26 16:24:25;;;;;;;;;;;14.90;73.10;;;;;;7327099;19;9713;-60
2023/12/26 16:26:54;;;;;;;;;;;14.90;73.20;;;;;;7327207;19;9665;-61
2023/12/26 16:29:23;;;;;;;;;;;14.90;73.10;;;;;;7325950;19;9669;-61
2023/12/26 16:31:52;;;;;;;;;;;14.80;73.00;;;;;;7327366;19;9633;-61
2023/12/26 16:34:21;;;;;;;;;;;14.90;73.10;;;;;;7326683;19;9171;-61
2023/12/26 16:36:53;;;;;;;;;;;14.80;73.10;;;;;;7326874;19;9386;-61
2023/12/26 16:39:22;;;;;;;;;;;14.80;73.10;;;;;;7326846;19;10357;-61
2023/12/26 16:42:07;;;;;;;;;;;14.80;73.10;;;;;;7325498;19;9334;-60
2023/12/26 16:44:36;;;;;;;;;;;14.80;73.60;;;;;;7325997;19;9221;-61
2023/12/26 16:47:06;;;;;;;;;;;14.80;73.00;;;;;;7326234;19;9254;-60
2023/12/26 16:49:35;;;;;;;;;;;14.80;73.00;;;;;;7326541;19;9469;-60
2023/12/26 16:52:07;;;;;;;;;;;14.90;73.00;;;;;;7325932;19;9442;-61
2023/12/26 16:54:37;;;;;;;;;;;14.90;72.80;;;;;;7326455;19;9287;-60
2023/12/26 16:57:07;;;;;;;;;;;15.00;72.70;;;;;;7325906;19;9137;-61
2023/12/26 16:59:40;;;;;;;;;;;15.00;72.40;;;;;;7325393;19;9401;-61
2023/12/26 17:02:09;;;;;;;;;;;15.10;72.20;;;;;;7325903;19;9462;-60
2023/12/26 17:04:40;;;;;;;;;;;15.20;72.10;;;;;;7325753;19;10546;-61
2023/12/26 17:07:12;;;;;;;;;;;15.30;72.00;;;;;;7326488;19;9552;-61
2023/12/26 17:09:42;;;;;;;;;;;15.30;71.90;;;;;;7325713;19;9214;-61
2023/12/26 17:12:12;;;;;;;;;;;15.40;71.80;;;;;;7326369;19;9392;-60
2023/12/26 17:14:41;;;;;;;;;;;15.40;71.80;;;;;;7324974;19;9327;-61
2023/12/26 17:17:10;;;;;;;;;;;15.50;71.60;;;;;;7326397;19;9306;-61
2023/12/26 17:19:39;;;;;;;;;;;15.50;71.50;;;;;;7325468;19;9284;-61
2023/12/26 17:22:11;;;;;;;;;;;15.60;71.30;;;;;;7325360;19;9417;-61
2023/12/26 17:24:41;;;;;;;;;;;15.60;71.20;;;;;;7325781;19;10823;-61
2023/12/26 17:27:10;;;;;;;;;;;15.70;71.30;;;;;;7324418;19;9164;-61
2023/12/26 17:29:37;;;;;;;;;;;15.70;71.10;;;;;;7325847;19;9257;-61
2023/12/26 17:32:06;;;;;;;;;;;15.70;71.00;;;;;;7324975;19;9198;-61
2023/12/26 17:34:35;;;;;;;;;;;15.70;71.00;;;;;;7325722;19;9221;-60
2023/12/26 17:37:05;;;;;;;;;;;15.70;71.00;;;;;;7324877;19;9210;-60
2023/12/26 17:39:57;;;;;;;;;;;15.70;71.00;;;;;;7323800;19;9441;-61
2023/12/26 17:42:26;;;;;;;;;;;15.70;70.90;;;;;;7324414;19;9520;-61